Charleston/Yeager

Airport
ICAO code: 
KCRW
Summary
ICAO Region: 
NAM
Territory: 
Location: 
Charleston, West Virginia,
Elevation: 
981 ft
Coordinates: 
Aerial View: 
38° 22' 13.624" N, 81° 35' 46.266" W
Airport RE: 
Engineered Materials Arresting System
Airport WX: 
Cumulonimbus
Metar
Observation
KCRW 040654Z 00000KT 10SM CLR 07/03 A2999 RMK AO2 SLP154 T00720033
Station
Charleston, Yeager Airport
Date/Time
2021-12-04 06:54:00
Wind direction
Wind speed
00 kts
Lowest cloud amount
n/a
Temperature
7.2°C
Dew point
3.3°C
Humidity
76%
Weather condition
n/a

Description

Yeager Airport is a joint use civil-military public airport located 5 km east of the central business district of Charleston, a city in Kanawha County, West Virginia. It is co-located with Charleston Air National Guard Base.

Climatology

Humid “subtropical” climate (Köppen climate classification Cfa) - characterized by hot, humid summers and cool winters. Significant amounts of precipitation occur in all seasons in most areas. Winter rainfall (and sometimes snowfall) is associated with large storms that the westerlies steer from west to east. Most summer rainfall occurs during thunderstorms.

Runways

Designator Length Width Surface Rops
15/33 1448 46 ASP Yes/Yes
5/23 1921 46 ASP Yes/Yes
Airport map: 
Aerial View: 

Accidents and Serious Incidents at or in the vicinity of KCRW

SKYbrary Partners:

Safety knowledge contributed by: